KLHM/LHM METAR and TAF weather

Enter ICAO airport designator
Station Type Date Time Source
KLHM METAR 2021/03/03 02:35 UTC NOAA

KLHM 030235Z AUTO 00000KT 10SM CLR 16/00 A2981 RMK AO1


Station Type Date Time Source
KLHM Decoded METAR 2021/03/03 02:35 UTC NOAA

Station name not available
Mar 02, 2021 - 09:35 PM EST / 2021.03.03 0235 UTC
Wind: Calm:0
Visibility: 10 mile(s):0
Sky conditions: clear
Temperature: 60 F (16 C)
Dew Point: 32 F (0 C)
Relative Humidity: 33%
Pressure (altimeter): 29.81 in. Hg (1009 hPa)
ob: KLHM 030235Z AUTO 00000KT 10SM CLR 16/00 A2981 RMK AO1
cycle: 2

Station Type Date Time Source
KLHM TAF UTC NOAA

Error!

Example: see airport list